Pagina principale
METAR-TAF:

METAR-TAF

Aeroporti :

Aeroporto di Torino-Aeritalia

Torino, Italia

latitudine: 45-05-20N, longitudine: 007-36-20E, altezza: 288 m

Osservazione

Il bollettino è stato emesso 1 ora e 12 minuti fa, alle 11:50 UTC
Vento 3 kt da sud/sud-ovest, variando fra sud e ovest/sud-ovest
Temperature 7°C
Umidità 66%
Pressione 1024 hPa
Visibilità: 8000 m

METAR: LIMA 061150Z 21003KT 170V240 8000 NSC 07/01 Q1024

Ora: 14:02 (13:02 UTC)


TAF: mancante

Osservazioni e previsioni meteorologiche di più di 4000 aeroporti (messaggi METAR e TAF).

Le stazioni disponibili sono rappresentate dai dischi gialli e rossi sulla carta.

Puntare il mouse per vedere il nome della stazione.

Clicca sopra per visualizzare le osservazioni e previsioni meteorologiche.

Per cambiare la mappa : fare clic sui pulsanti verdi con una croce nera per ingrandire, il pulsante verde con un trattino per diminuire, o sulla freccia verde per le mappe adiacenti.


METAR-TAF: